Etusivu
METAR-TAF:

METAR-TAF

Lentoasemat :

Kristianstad, Ruotsi

Leveyspiiri: 55-55N, Pituuspiiri: 014-05E, korkeus merenpinnasta: 23 m

Tämänhetkinen sää

Tämä raportti tehtiin 19 minuuttia sitten, kello 21.50 UTC
Tuuli 2 kn etelästä
Lämpötila 5°C
Kosteus 65%
Ilmanpaine 1019 hPa
Näkyvyys 10 km tai enemmän

METAR: ESMK 082150Z AUTO 18002KT 9999 FEW140/// 05/M01 Q1019

Aika: 00:09 (22:09 UTC)

Sääennuste

Tämä raportti tehtiin 11 tuntia ja 0 minuuttia sitten, kello 11.09 UTC
Ennuste voimassa 08. päivästä klo 12 UTC - 08. päivään klo 15 UTC
Tuuli 10 kn lounaasta
Näkyvyys 10 km tai enemmän
ei pilviä alle 1500 m:ssä eikä cumulonimbus-pilviä

TAF: ESMK 081109Z 0812/0815 22010KT CAVOK

Säähavainnot ja -ennusteet yli 4000 lentoasemalta (METAR- ja TAF-raportit).

Käytössä olevat sääasemat on merkitty karttaan keltaisilla ja punaisilla pisteillä.

Aseta hiiri pisteen päälle nähdäksesi sääaseman nimen.

Klikkaa sitten nähdäksesi säähavainnot ja -ennusteet.

Kartan vaihtaminen: klikkaa mustalla rastilla varustettuja vihreitä pisteitä, niin voit zoomata sisään; viivalla varustettua vihreää pistettä, niin voit zoomata ulos tai vihreitä nuolia, niin pääset viereisille kartoille.


METAR-TAF: